sensor_id;sensor_type;location;lat;lon;timestamp;P1;durP1;ratioP1;P2;durP2;ratioP2
16766;SDS011;8501;49.926;8.404;2023-11-21T00:01:27;8.13;;;2.60;;
16766;SDS011;8501;49.926;8.404;2023-11-21T00:03:52;5.57;;;2.60;;
16766;SDS011;8501;49.926;8.404;2023-11-21T00:06:20;10.43;;;2.90;;
16766;SDS011;8501;49.926;8.404;2023-11-21T00:08:45;8.20;;;2.73;;
16766;SDS011;8501;49.926;8.404;2023-11-21T00:11:11;5.57;;;2.50;;
16766;SDS011;8501;49.926;8.404;2023-11-21T00:13:41;9.53;;;2.50;;
16766;SDS011;8501;49.926;8.404;2023-11-21T00:16:06;5.33;;;2.60;;
16766;SDS011;8501;49.926;8.404;2023-11-21T00:18:32;5.33;;;2.50;;
16766;SDS011;8501;49.926;8.404;2023-11-21T00:20:58;6.13;;;2.40;;
16766;SDS011;8501;49.926;8.404;2023-11-21T00:23:24;5.00;;;2.20;;
16766;SDS011;8501;49.926;8.404;2023-11-21T00:25:50;7.87;;;2.67;;
16766;SDS011;8501;49.926;8.404;2023-11-21T00:28:16;3.50;;;2.27;;
16766;SDS011;8501;49.926;8.404;2023-11-21T00:30:41;6.67;;;2.90;;
16766;SDS011;8501;49.926;8.404;2023-11-21T00:33:07;9.30;;;2.80;;
16766;SDS011;8501;49.926;8.404;2023-11-21T00:35:33;5.83;;;2.60;;
16766;SDS011;8501;49.926;8.404;2023-11-21T00:37:58;3.90;;;2.30;;
16766;SDS011;8501;49.926;8.404;2023-11-21T00:40:24;3.67;;;2.10;;
16766;SDS011;8501;49.926;8.404;2023-11-21T00:42:49;3.37;;;2.13;;
16766;SDS011;8501;49.926;8.404;2023-11-21T00:45:15;5.20;;;3.00;;
16766;SDS011;8501;49.926;8.404;2023-11-21T00:47:41;3.73;;;2.10;;
16766;SDS011;8501;49.926;8.404;2023-11-21T00:50:07;5.73;;;2.60;;
16766;SDS011;8501;49.926;8.404;2023-11-21T00:52:33;3.73;;;2.53;;
16766;SDS011;8501;49.926;8.404;2023-11-21T00:54:59;5.47;;;2.90;;
16766;SDS011;8501;49.926;8.404;2023-11-21T00:57:25;3.77;;;3.07;;
16766;SDS011;8501;49.926;8.404;2023-11-21T00:59:51;8.57;;;2.77;;
16766;SDS011;8501;49.926;8.404;2023-11-21T01:02:17;5.47;;;2.70;;
16766;SDS011;8501;49.926;8.404;2023-11-21T01:04:42;5.70;;;3.40;;
16766;SDS011;8501;49.926;8.404;2023-11-21T01:07:08;6.20;;;3.20;;
16766;SDS011;8501;49.926;8.404;2023-11-21T01:09:34;6.20;;;3.17;;
16766;SDS011;8501;49.926;8.404;2023-11-21T01:12:00;5.80;;;3.33;;
16766;SDS011;8501;49.926;8.404;2023-11-21T01:14:25;8.03;;;4.03;;
16766;SDS011;8501;49.926;8.404;2023-11-21T01:16:52;6.97;;;3.80;;
16766;SDS011;8501;49.926;8.404;2023-11-21T01:19:18;9.00;;;4.20;;
16766;SDS011;8501;49.926;8.404;2023-11-21T01:21:43;8.77;;;4.60;;
16766;SDS011;8501;49.926;8.404;2023-11-21T01:24:09;9.77;;;4.57;;
16766;SDS011;8501;49.926;8.404;2023-11-21T01:26:34;9.17;;;4.90;;
16766;SDS011;8501;49.926;8.404;2023-11-21T01:29:00;7.73;;;4.53;;
16766;SDS011;8501;49.926;8.404;2023-11-21T01:31:25;8.17;;;4.83;;
16766;SDS011;8501;49.926;8.404;2023-11-21T01:33:54;9.50;;;4.97;;
16766;SDS011;8501;49.926;8.404;2023-11-21T01:36:20;9.37;;;4.80;;
16766;SDS011;8501;49.926;8.404;2023-11-21T01:38:46;8.67;;;5.00;;
16766;SDS011;8501;49.926;8.404;2023-11-21T01:41:13;11.10;;;4.80;;
16766;SDS011;8501;49.926;8.404;2023-11-21T01:43:39;9.07;;;4.90;;
16766;SDS011;8501;49.926;8.404;2023-11-21T01:46:05;7.60;;;4.63;;
16766;SDS011;8501;49.926;8.404;2023-11-21T01:48:31;7.60;;;4.63;;
16766;SDS011;8501;49.926;8.404;2023-11-21T01:50:57;9.00;;;4.80;;
16766;SDS011;8501;49.926;8.404;2023-11-21T01:53:24;10.83;;;5.07;;
16766;SDS011;8501;49.926;8.404;2023-11-21T01:55:51;8.50;;;4.57;;
16766;SDS011;8501;49.926;8.404;2023-11-21T01:58:16;8.90;;;4.43;;
16766;SDS011;8501;49.926;8.404;2023-11-21T02:00:42;10.37;;;4.60;;
16766;SDS011;8501;49.926;8.404;2023-11-21T02:03:08;10.03;;;4.67;;
16766;SDS011;8501;49.926;8.404;2023-11-21T02:05:35;7.53;;;4.20;;
16766;SDS011;8501;49.926;8.404;2023-11-21T02:08:01;7.17;;;4.20;;
16766;SDS011;8501;49.926;8.404;2023-11-21T02:10:28;8.63;;;4.80;;
16766;SDS011;8501;49.926;8.404;2023-11-21T02:12:56;7.63;;;3.93;;
16766;SDS011;8501;49.926;8.404;2023-11-21T02:15:22;5.97;;;3.77;;
16766;SDS011;8501;49.926;8.404;2023-11-21T02:17:51;7.77;;;3.83;;
16766;SDS011;8501;49.926;8.404;2023-11-21T02:20:18;6.73;;;3.20;;
16766;SDS011;8501;49.926;8.404;2023-11-21T02:22:52;6.40;;;3.47;;
16766;SDS011;8501;49.926;8.404;2023-11-21T02:25:29;7.73;;;3.20;;
16766;SDS011;8501;49.926;8.404;2023-11-21T02:28:01;6.90;;;3.70;;
16766;SDS011;8501;49.926;8.404;2023-11-21T02:30:27;7.80;;;3.60;;
16766;SDS011;8501;49.926;8.404;2023-11-21T02:32:53;7.20;;;3.43;;
16766;SDS011;8501;49.926;8.404;2023-11-21T02:35:20;9.53;;;3.80;;
16766;SDS011;8501;49.926;8.404;2023-11-21T02:37:46;5.27;;;3.40;;
16766;SDS011;8501;49.926;8.404;2023-11-21T02:40:12;8.73;;;3.60;;
16766;SDS011;8501;49.926;8.404;2023-11-21T02:42:41;10.80;;;4.23;;
16766;SDS011;8501;49.926;8.404;2023-11-21T02:45:07;6.10;;;4.53;;
16766;SDS011;8501;49.926;8.404;2023-11-21T02:47:33;11.60;;;4.70;;
16766;SDS011;8501;49.926;8.404;2023-11-21T02:49:59;7.77;;;4.50;;
16766;SDS011;8501;49.926;8.404;2023-11-21T02:52:24;7.73;;;4.70;;
16766;SDS011;8501;49.926;8.404;2023-11-21T02:54:50;11.57;;;4.70;;
16766;SDS011;8501;49.926;8.404;2023-11-21T02:57:16;11.40;;;5.03;;
16766;SDS011;8501;49.926;8.404;2023-11-21T02:59:41;8.07;;;4.83;;
16766;SDS011;8501;49.926;8.404;2023-11-21T03:02:07;8.73;;;4.60;;
16766;SDS011;8501;49.926;8.404;2023-11-21T03:04:35;13.47;;;5.33;;
16766;SDS011;8501;49.926;8.404;2023-11-21T03:07:01;8.53;;;4.30;;
16766;SDS011;8501;49.926;8.404;2023-11-21T03:09:26;8.20;;;4.50;;
16766;SDS011;8501;49.926;8.404;2023-11-21T03:11:52;8.03;;;5.07;;
16766;SDS011;8501;49.926;8.404;2023-11-21T03:14:18;8.33;;;4.87;;
16766;SDS011;8501;49.926;8.404;2023-11-21T03:16:44;7.60;;;4.93;;
16766;SDS011;8501;49.926;8.404;2023-11-21T03:19:10;7.83;;;4.93;;
16766;SDS011;8501;49.926;8.404;2023-11-21T03:21:36;9.47;;;5.13;;
16766;SDS011;8501;49.926;8.404;2023-11-21T03:24:02;9.17;;;4.90;;
16766;SDS011;8501;49.926;8.404;2023-11-21T03:26:27;8.93;;;4.93;;
16766;SDS011;8501;49.926;8.404;2023-11-21T03:28:54;8.93;;;5.60;;
16766;SDS011;8501;49.926;8.404;2023-11-21T03:31:20;8.90;;;5.00;;
16766;SDS011;8501;49.926;8.404;2023-11-21T03:33:46;8.87;;;5.53;;
16766;SDS011;8501;49.926;8.404;2023-11-21T03:36:12;10.33;;;5.70;;
16766;SDS011;8501;49.926;8.404;2023-11-21T03:38:39;9.87;;;5.33;;
16766;SDS011;8501;49.926;8.404;2023-11-21T03:41:05;10.47;;;6.30;;
16766;SDS011;8501;49.926;8.404;2023-11-21T03:43:31;10.83;;;5.57;;
16766;SDS011;8501;49.926;8.404;2023-11-21T03:45:56;11.93;;;6.53;;
16766;SDS011;8501;49.926;8.404;2023-11-21T03:48:22;11.23;;;5.77;;
16766;SDS011;8501;49.926;8.404;2023-11-21T03:50:48;11.23;;;6.30;;
16766;SDS011;8501;49.926;8.404;2023-11-21T03:53:13;11.77;;;6.50;;
16766;SDS011;8501;49.926;8.404;2023-11-21T03:55:39;11.97;;;6.20;;
16766;SDS011;8501;49.926;8.404;2023-11-21T03:58:04;11.60;;;6.03;;
16766;SDS011;8501;49.926;8.404;2023-11-21T04:00:31;11.23;;;6.33;;
16766;SDS011;8501;49.926;8.404;2023-11-21T04:02:56;9.03;;;6.33;;
16766;SDS011;8501;49.926;8.404;2023-11-21T04:05:22;12.90;;;6.70;;
16766;SDS011;8501;49.926;8.404;2023-11-21T04:07:49;10.03;;;6.37;;
16766;SDS011;8501;49.926;8.404;2023-11-21T04:10:15;10.70;;;6.63;;
16766;SDS011;8501;49.926;8.404;2023-11-21T04:12:41;11.03;;;6.50;;
16766;SDS011;8501;49.926;8.404;2023-11-21T04:15:07;9.87;;;6.37;;
16766;SDS011;8501;49.926;8.404;2023-11-21T04:17:34;12.23;;;6.33;;
16766;SDS011;8501;49.926;8.404;2023-11-21T04:20:00;12.90;;;6.80;;
16766;SDS011;8501;49.926;8.404;2023-11-21T04:22:25;11.73;;;6.90;;
16766;SDS011;8501;49.926;8.404;2023-11-21T04:24:51;12.00;;;7.47;;
16766;SDS011;8501;49.926;8.404;2023-11-21T04:27:16;14.83;;;8.23;;
16766;SDS011;8501;49.926;8.404;2023-11-21T04:29:43;14.20;;;7.97;;
16766;SDS011;8501;49.926;8.404;2023-11-21T04:32:09;15.37;;;8.20;;
16766;SDS011;8501;49.926;8.404;2023-11-21T04:34:34;18.00;;;9.13;;
16766;SDS011;8501;49.926;8.404;2023-11-21T04:37:00;15.67;;;8.17;;
16766;SDS011;8501;49.926;8.404;2023-11-21T04:39:26;13.60;;;8.30;;
16766;SDS011;8501;49.926;8.404;2023-11-21T04:41:51;16.17;;;8.30;;
16766;SDS011;8501;49.926;8.404;2023-11-21T04:44:17;14.53;;;8.30;;
16766;SDS011;8501;49.926;8.404;2023-11-21T04:46:42;13.67;;;7.30;;
16766;SDS011;8501;49.926;8.404;2023-11-21T04:49:08;14.17;;;8.00;;
16766;SDS011;8501;49.926;8.404;2023-11-21T04:51:35;11.87;;;7.30;;
16766;SDS011;8501;49.926;8.404;2023-11-21T04:54:01;14.90;;;7.90;;
16766;SDS011;8501;49.926;8.404;2023-11-21T04:56:27;12.80;;;7.50;;
16766;SDS011;8501;49.926;8.404;2023-11-21T04:58:53;13.53;;;8.17;;
16766;SDS011;8501;49.926;8.404;2023-11-21T05:01:19;14.13;;;8.10;;
16766;SDS011;8501;49.926;8.404;2023-11-21T05:03:45;13.97;;;8.23;;
16766;SDS011;8501;49.926;8.404;2023-11-21T05:06:12;16.23;;;8.40;;
16766;SDS011;8501;49.926;8.404;2023-11-21T05:08:39;15.37;;;8.37;;
16766;SDS011;8501;49.926;8.404;2023-11-21T05:11:04;13.70;;;7.80;;
16766;SDS011;8501;49.926;8.404;2023-11-21T05:13:33;16.10;;;8.17;;
16766;SDS011;8501;49.926;8.404;2023-11-21T05:15:59;16.30;;;8.97;;
16766;SDS011;8501;49.926;8.404;2023-11-21T05:18:24;14.17;;;8.50;;
16766;SDS011;8501;49.926;8.404;2023-11-21T05:20:54;15.87;;;8.27;;
16766;SDS011;8501;49.926;8.404;2023-11-21T05:23:20;16.93;;;9.53;;
16766;SDS011;8501;49.926;8.404;2023-11-21T05:25:46;16.13;;;9.13;;
16766;SDS011;8501;49.926;8.404;2023-11-21T05:28:12;16.43;;;9.30;;
16766;SDS011;8501;49.926;8.404;2023-11-21T05:30:37;18.60;;;9.77;;
16766;SDS011;8501;49.926;8.404;2023-11-21T05:33:06;18.10;;;9.80;;
16766;SDS011;8501;49.926;8.404;2023-11-21T05:35:31;16.40;;;10.00;;
16766;SDS011;8501;49.926;8.404;2023-11-21T05:37:57;21.50;;;11.27;;
16766;SDS011;8501;49.926;8.404;2023-11-21T05:40:22;20.80;;;11.50;;
16766;SDS011;8501;49.926;8.404;2023-11-21T05:42:48;20.17;;;11.70;;
16766;SDS011;8501;49.926;8.404;2023-11-21T05:45:16;20.10;;;10.80;;
16766;SDS011;8501;49.926;8.404;2023-11-21T05:47:44;20.93;;;10.83;;
16766;SDS011;8501;49.926;8.404;2023-11-21T05:50:11;18.13;;;9.70;;
16766;SDS011;8501;49.926;8.404;2023-11-21T05:52:44;16.03;;;9.53;;
16766;SDS011;8501;49.926;8.404;2023-11-21T05:55:11;20.10;;;10.53;;
16766;SDS011;8501;49.926;8.404;2023-11-21T05:57:38;18.17;;;9.90;;
16766;SDS011;8501;49.926;8.404;2023-11-21T06:00:10;18.43;;;10.03;;
16766;SDS011;8501;49.926;8.404;2023-11-21T06:02:50;19.10;;;10.53;;
16766;SDS011;8501;49.926;8.404;2023-11-21T06:05:21;19.80;;;10.53;;
16766;SDS011;8501;49.926;8.404;2023-11-21T06:07:48;20.20;;;10.07;;
16766;SDS011;8501;49.926;8.404;2023-11-21T06:10:14;19.57;;;10.90;;
16766;SDS011;8501;49.926;8.404;2023-11-21T06:12:42;19.50;;;10.97;;
16766;SDS011;8501;49.926;8.404;2023-11-21T06:15:09;22.07;;;11.17;;
16766;SDS011;8501;49.926;8.404;2023-11-21T06:17:38;19.60;;;11.50;;
16766;SDS011;8501;49.926;8.404;2023-11-21T06:20:05;22.63;;;11.77;;
16766;SDS011;8501;49.926;8.404;2023-11-21T06:22:41;20.93;;;11.47;;
16766;SDS011;8501;49.926;8.404;2023-11-21T06:25:08;20.00;;;10.73;;
16766;SDS011;8501;49.926;8.404;2023-11-21T06:27:43;22.83;;;11.20;;
16766;SDS011;8501;49.926;8.404;2023-11-21T06:30:10;20.07;;;11.07;;
16766;SDS011;8501;49.926;8.404;2023-11-21T06:32:36;20.80;;;11.03;;
16766;SDS011;8501;49.926;8.404;2023-11-21T06:35:03;22.30;;;11.27;;
16766;SDS011;8501;49.926;8.404;2023-11-21T06:37:29;18.30;;;10.83;;
16766;SDS011;8501;49.926;8.404;2023-11-21T06:39:57;19.63;;;11.13;;
16766;SDS011;8501;49.926;8.404;2023-11-21T06:42:23;21.23;;;11.13;;
16766;SDS011;8501;49.926;8.404;2023-11-21T06:44:49;18.70;;;10.50;;
16766;SDS011;8501;49.926;8.404;2023-11-21T06:47:16;18.47;;;10.10;;
16766;SDS011;8501;49.926;8.404;2023-11-21T06:49:43;18.33;;;10.67;;
16766;SDS011;8501;49.926;8.404;2023-11-21T06:52:08;20.03;;;10.90;;
16766;SDS011;8501;49.926;8.404;2023-11-21T06:54:34;19.57;;;10.40;;
16766;SDS011;8501;49.926;8.404;2023-11-21T06:57:01;17.17;;;10.20;;
16766;SDS011;8501;49.926;8.404;2023-11-21T06:59:30;16.50;;;10.00;;
16766;SDS011;8501;49.926;8.404;2023-11-21T07:01:56;17.57;;;9.57;;
16766;SDS011;8501;49.926;8.404;2023-11-21T07:04:22;17.60;;;9.60;;
16766;SDS011;8501;49.926;8.404;2023-11-21T07:06:47;16.83;;;8.93;;
16766;SDS011;8501;49.926;8.404;2023-11-21T07:09:13;19.77;;;10.10;;
16766;SDS011;8501;49.926;8.404;2023-11-21T07:11:38;20.27;;;10.33;;
16766;SDS011;8501;49.926;8.404;2023-11-21T07:14:04;17.00;;;9.93;;
16766;SDS011;8501;49.926;8.404;2023-11-21T07:16:35;17.33;;;10.03;;
16766;SDS011;8501;49.926;8.404;2023-11-21T07:19:04;14.13;;;8.63;;
16766;SDS011;8501;49.926;8.404;2023-11-21T07:21:33;14.20;;;8.63;;
16766;SDS011;8501;49.926;8.404;2023-11-21T07:23:59;16.30;;;8.90;;
16766;SDS011;8501;49.926;8.404;2023-11-21T07:26:28;19.23;;;10.10;;
16766;SDS011;8501;49.926;8.404;2023-11-21T07:28:54;17.87;;;9.73;;
16766;SDS011;8501;49.926;8.404;2023-11-21T07:31:21;16.87;;;10.07;;
16766;SDS011;8501;49.926;8.404;2023-11-21T07:33:46;18.47;;;10.33;;
16766;SDS011;8501;49.926;8.404;2023-11-21T07:36:13;19.43;;;10.53;;
16766;SDS011;8501;49.926;8.404;2023-11-21T07:38:39;15.97;;;9.37;;
16766;SDS011;8501;49.926;8.404;2023-11-21T07:41:05;16.63;;;9.23;;
16766;SDS011;8501;49.926;8.404;2023-11-21T07:43:32;16.53;;;9.40;;
16766;SDS011;8501;49.926;8.404;2023-11-21T07:46:03;16.70;;;9.60;;
16766;SDS011;8501;49.926;8.404;2023-11-21T07:48:29;16.53;;;9.17;;
16766;SDS011;8501;49.926;8.404;2023-11-21T07:50:59;17.87;;;9.50;;
16766;SDS011;8501;49.926;8.404;2023-11-21T07:53:25;14.00;;;7.83;;
16766;SDS011;8501;49.926;8.404;2023-11-21T07:55:53;12.90;;;8.00;;
16766;SDS011;8501;49.926;8.404;2023-11-21T07:58:19;14.97;;;8.60;;
16766;SDS011;8501;49.926;8.404;2023-11-21T08:00:45;14.33;;;8.90;;
16766;SDS011;8501;49.926;8.404;2023-11-21T08:03:10;15.60;;;10.10;;
16766;SDS011;8501;49.926;8.404;2023-11-21T08:05:36;19.70;;;11.43;;
16766;SDS011;8501;49.926;8.404;2023-11-21T08:08:01;16.40;;;11.23;;
16766;SDS011;8501;49.926;8.404;2023-11-21T08:10:27;19.40;;;11.93;;
16766;SDS011;8501;49.926;8.404;2023-11-21T08:12:52;26.13;;;14.40;;
16766;SDS011;8501;49.926;8.404;2023-11-21T08:15:18;29.50;;;17.10;;
16766;SDS011;8501;49.926;8.404;2023-11-21T08:17:44;24.80;;;14.83;;
16766;SDS011;8501;49.926;8.404;2023-11-21T08:20:10;26.30;;;14.43;;
16766;SDS011;8501;49.926;8.404;2023-11-21T08:22:35;17.70;;;10.43;;
16766;SDS011;8501;49.926;8.404;2023-11-21T08:25:01;19.93;;;11.10;;
16766;SDS011;8501;49.926;8.404;2023-11-21T08:27:29;20.60;;;11.60;;
16766;SDS011;8501;49.926;8.404;2023-11-21T08:29:54;19.20;;;11.07;;
16766;SDS011;8501;49.926;8.404;2023-11-21T08:32:21;56.83;;;25.03;;
16766;SDS011;8501;49.926;8.404;2023-11-21T08:34:47;46.27;;;19.83;;
16766;SDS011;8501;49.926;8.404;2023-11-21T08:37:15;40.10;;;19.30;;
16766;SDS011;8501;49.926;8.404;2023-11-21T08:39:41;22.80;;;12.53;;
16766;SDS011;8501;49.926;8.404;2023-11-21T08:42:08;16.87;;;9.10;;
16766;SDS011;8501;49.926;8.404;2023-11-21T08:44:33;11.93;;;7.40;;
16766;SDS011;8501;49.926;8.404;2023-11-21T08:46:59;16.43;;;9.17;;
16766;SDS011;8501;49.926;8.404;2023-11-21T08:49:24;16.87;;;9.87;;
16766;SDS011;8501;49.926;8.404;2023-11-21T08:51:52;14.40;;;9.07;;
16766;SDS011;8501;49.926;8.404;2023-11-21T08:54:20;15.30;;;8.00;;
16766;SDS011;8501;49.926;8.404;2023-11-21T08:56:45;11.30;;;7.37;;
16766;SDS011;8501;49.926;8.404;2023-11-21T08:59:11;11.07;;;7.13;;
16766;SDS011;8501;49.926;8.404;2023-11-21T09:01:39;13.47;;;6.80;;
16766;SDS011;8501;49.926;8.404;2023-11-21T09:04:05;9.30;;;6.47;;
16766;SDS011;8501;49.926;8.404;2023-11-21T09:06:31;11.60;;;7.47;;
16766;SDS011;8501;49.926;8.404;2023-11-21T09:08:57;12.47;;;7.27;;
16766;SDS011;8501;49.926;8.404;2023-11-21T09:11:23;11.63;;;7.47;;
16766;SDS011;8501;49.926;8.404;2023-11-21T09:13:50;10.53;;;7.23;;
16766;SDS011;8501;49.926;8.404;2023-11-21T09:16:16;11.07;;;7.80;;
16766;SDS011;8501;49.926;8.404;2023-11-21T09:18:42;15.87;;;10.33;;
16766;SDS011;8501;49.926;8.404;2023-11-21T09:21:07;15.87;;;9.07;;
16766;SDS011;8501;49.926;8.404;2023-11-21T09:23:33;19.07;;;11.57;;
16766;SDS011;8501;49.926;8.404;2023-11-21T09:26:00;21.23;;;8.97;;
16766;SDS011;8501;49.926;8.404;2023-11-21T09:28:26;14.70;;;8.23;;
16766;SDS011;8501;49.926;8.404;2023-11-21T09:30:52;11.93;;;7.67;;
16766;SDS011;8501;49.926;8.404;2023-11-21T09:33:18;16.97;;;10.50;;
16766;SDS011;8501;49.926;8.404;2023-11-21T09:35:44;28.80;;;24.30;;
16766;SDS011;8501;49.926;8.404;2023-11-21T09:38:09;23.20;;;19.73;;
16766;SDS011;8501;49.926;8.404;2023-11-21T09:40:36;13.53;;;9.30;;
16766;SDS011;8501;49.926;8.404;2023-11-21T09:43:05;9.07;;;5.67;;
16766;SDS011;8501;49.926;8.404;2023-11-21T09:45:39;9.40;;;5.50;;
16766;SDS011;8501;49.926;8.404;2023-11-21T09:48:05;11.87;;;6.27;;
16766;SDS011;8501;49.926;8.404;2023-11-21T09:50:32;16.73;;;8.30;;
16766;SDS011;8501;49.926;8.404;2023-11-21T09:55:43;10.43;;;5.57;;
16766;SDS011;8501;49.926;8.404;2023-11-21T09:58:10;8.53;;;5.60;;
16766;SDS011;8501;49.926;8.404;2023-11-21T10:00:42;8.70;;;5.50;;
16766;SDS011;8501;49.926;8.404;2023-11-21T10:03:09;7.23;;;4.80;;
16766;SDS011;8501;49.926;8.404;2023-11-21T10:05:36;8.83;;;5.20;;
16766;SDS011;8501;49.926;8.404;2023-11-21T10:08:03;10.73;;;5.57;;
16766;SDS011;8501;49.926;8.404;2023-11-21T10:10:32;10.63;;;6.10;;
16766;SDS011;8501;49.926;8.404;2023-11-21T10:12:57;10.43;;;5.97;;
16766;SDS011;8501;49.926;8.404;2023-11-21T10:15:28;9.83;;;5.30;;
16766;SDS011;8501;49.926;8.404;2023-11-21T10:17:55;8.70;;;5.13;;
16766;SDS011;8501;49.926;8.404;2023-11-21T10:20:21;8.30;;;5.03;;
16766;SDS011;8501;49.926;8.404;2023-11-21T10:22:49;11.67;;;6.23;;
16766;SDS011;8501;49.926;8.404;2023-11-21T10:25:15;10.03;;;6.27;;
16766;SDS011;8501;49.926;8.404;2023-11-21T10:27:41;10.20;;;6.50;;
16766;SDS011;8501;49.926;8.404;2023-11-21T10:30:08;10.40;;;7.70;;
16766;SDS011;8501;49.926;8.404;2023-11-21T10:32:37;12.50;;;7.47;;
16766;SDS011;8501;49.926;8.404;2023-11-21T10:35:03;12.07;;;6.60;;
16766;SDS011;8501;49.926;8.404;2023-11-21T10:37:35;10.57;;;5.80;;
16766;SDS011;8501;49.926;8.404;2023-11-21T10:40:05;12.57;;;6.07;;
16766;SDS011;8501;49.926;8.404;2023-11-21T10:42:37;15.10;;;5.63;;
16766;SDS011;8501;49.926;8.404;2023-11-21T10:45:04;9.93;;;5.20;;
16766;SDS011;8501;49.926;8.404;2023-11-21T10:47:37;13.70;;;5.57;;
16766;SDS011;8501;49.926;8.404;2023-11-21T10:50:04;11.70;;;4.83;;
16766;SDS011;8501;49.926;8.404;2023-11-21T10:52:30;8.30;;;4.77;;
16766;SDS011;8501;49.926;8.404;2023-11-21T10:54:55;12.60;;;5.60;;
16766;SDS011;8501;49.926;8.404;2023-11-21T10:57:23;15.90;;;6.93;;
16766;SDS011;8501;49.926;8.404;2023-11-21T10:59:50;12.20;;;4.97;;
16766;SDS011;8501;49.926;8.404;2023-11-21T11:04:57;8.63;;;4.70;;
16766;SDS011;8501;49.926;8.404;2023-11-21T11:07:25;11.37;;;5.13;;
16766;SDS011;8501;49.926;8.404;2023-11-21T11:09:53;14.17;;;5.80;;
16766;SDS011;8501;49.926;8.404;2023-11-21T11:12:20;10.90;;;5.20;;
16766;SDS011;8501;49.926;8.404;2023-11-21T11:14:46;7.87;;;4.43;;
16766;SDS011;8501;49.926;8.404;2023-11-21T11:17:12;10.53;;;5.03;;
16766;SDS011;8501;49.926;8.404;2023-11-21T11:19:38;12.27;;;4.90;;
16766;SDS011;8501;49.926;8.404;2023-11-21T11:22:20;7.00;;;4.50;;
16766;SDS011;8501;49.926;8.404;2023-11-21T11:25:06;9.07;;;4.47;;
16766;SDS011;8501;49.926;8.404;2023-11-21T11:27:54;8.17;;;4.50;;
16766;SDS011;8501;49.926;8.404;2023-11-21T11:38:46;10.70;;;4.87;;
16766;SDS011;8501;49.926;8.404;2023-11-21T11:41:15;13.27;;;4.30;;
16766;SDS011;8501;49.926;8.404;2023-11-21T11:43:50;9.37;;;5.20;;
16766;SDS011;8501;49.926;8.404;2023-11-21T11:46:16;10.17;;;4.90;;
16766;SDS011;8501;49.926;8.404;2023-11-21T11:48:41;9.67;;;4.97;;
16766;SDS011;8501;49.926;8.404;2023-11-21T11:51:10;7.97;;;4.30;;
16766;SDS011;8501;49.926;8.404;2023-11-21T11:53:40;7.63;;;3.97;;
16766;SDS011;8501;49.926;8.404;2023-11-21T11:58:56;11.90;;;6.37;;
16766;SDS011;8501;49.926;8.404;2023-11-21T12:01:24;14.97;;;8.17;;
16766;SDS011;8501;49.926;8.404;2023-11-21T12:06:45;12.20;;;5.00;;
16766;SDS011;8501;49.926;8.404;2023-11-21T12:09:17;16.10;;;5.80;;
16766;SDS011;8501;49.926;8.404;2023-11-21T12:11:48;11.23;;;6.03;;
16766;SDS011;8501;49.926;8.404;2023-11-21T12:14:14;15.30;;;7.67;;
16766;SDS011;8501;49.926;8.404;2023-11-21T12:16:40;15.33;;;7.83;;
16766;SDS011;8501;49.926;8.404;2023-11-21T12:19:07;16.97;;;8.77;;
16766;SDS011;8501;49.926;8.404;2023-11-21T12:21:33;21.73;;;11.47;;
16766;SDS011;8501;49.926;8.404;2023-11-21T12:23:59;26.37;;;13.53;;
16766;SDS011;8501;49.926;8.404;2023-11-21T12:26:25;24.23;;;11.37;;
16766;SDS011;8501;49.926;8.404;2023-11-21T12:28:53;19.43;;;10.53;;
16766;SDS011;8501;49.926;8.404;2023-11-21T12:31:22;15.67;;;8.73;;
16766;SDS011;8501;49.926;8.404;2023-11-21T12:33:48;22.17;;;10.43;;
16766;SDS011;8501;49.926;8.404;2023-11-21T12:36:14;20.67;;;10.30;;
16766;SDS011;8501;49.926;8.404;2023-11-21T12:38:41;12.20;;;6.50;;
16766;SDS011;8501;49.926;8.404;2023-11-21T12:41:07;11.00;;;5.60;;
16766;SDS011;8501;49.926;8.404;2023-11-21T12:43:33;14.50;;;6.80;;
16766;SDS011;8501;49.926;8.404;2023-11-21T12:46:12;12.33;;;6.30;;
16766;SDS011;8501;49.926;8.404;2023-11-21T12:48:43;19.13;;;10.20;;
16766;SDS011;8501;49.926;8.404;2023-11-21T12:51:10;11.20;;;7.50;;
16766;SDS011;8501;49.926;8.404;2023-11-21T12:53:40;11.60;;;5.33;;
16766;SDS011;8501;49.926;8.404;2023-11-21T12:56:07;8.23;;;5.57;;
16766;SDS011;8501;49.926;8.404;2023-11-21T12:58:36;9.70;;;5.00;;
16766;SDS011;8501;49.926;8.404;2023-11-21T13:01:04;7.43;;;4.60;;
16766;SDS011;8501;49.926;8.404;2023-11-21T13:03:30;9.13;;;4.80;;
16766;SDS011;8501;49.926;8.404;2023-11-21T13:05:56;9.60;;;4.80;;
16766;SDS011;8501;49.926;8.404;2023-11-21T13:08:24;8.67;;;4.93;;
16766;SDS011;8501;49.926;8.404;2023-11-21T13:10:51;10.93;;;5.63;;
16766;SDS011;8501;49.926;8.404;2023-11-21T13:13:19;9.53;;;5.27;;
16766;SDS011;8501;49.926;8.404;2023-11-21T13:15:48;9.20;;;5.77;;
16766;SDS011;8501;49.926;8.404;2023-11-21T13:18:14;10.20;;;5.33;;
16766;SDS011;8501;49.926;8.404;2023-11-21T13:20:41;8.23;;;4.67;;
16766;SDS011;8501;49.926;8.404;2023-11-21T13:23:08;8.67;;;5.00;;
16766;SDS011;8501;49.926;8.404;2023-11-21T13:25:36;10.37;;;5.90;;
16766;SDS011;8501;49.926;8.404;2023-11-21T13:28:03;7.67;;;5.10;;
16766;SDS011;8501;49.926;8.404;2023-11-21T13:30:30;7.87;;;5.10;;
16766;SDS011;8501;49.926;8.404;2023-11-21T13:32:59;10.07;;;6.17;;
16766;SDS011;8501;49.926;8.404;2023-11-21T13:35:31;9.40;;;5.67;;
16766;SDS011;8501;49.926;8.404;2023-11-21T13:38:06;12.00;;;6.30;;
16766;SDS011;8501;49.926;8.404;2023-11-21T13:40:36;10.03;;;6.10;;
16766;SDS011;8501;49.926;8.404;2023-11-21T13:43:08;16.30;;;8.40;;
16766;SDS011;8501;49.926;8.404;2023-11-21T13:45:41;14.17;;;8.23;;
16766;SDS011;8501;49.926;8.404;2023-11-21T13:48:08;15.23;;;8.63;;
16766;SDS011;8501;49.926;8.404;2023-11-21T13:50:39;22.13;;;12.60;;
16766;SDS011;8501;49.926;8.404;2023-11-21T13:53:11;16.07;;;9.93;;
16766;SDS011;8501;49.926;8.404;2023-11-21T13:55:47;13.47;;;7.90;;
16766;SDS011;8501;49.926;8.404;2023-11-21T13:58:14;16.40;;;10.00;;
16766;SDS011;8501;49.926;8.404;2023-11-21T14:00:47;17.80;;;9.87;;
16766;SDS011;8501;49.926;8.404;2023-11-21T14:03:20;15.23;;;9.40;;
16766;SDS011;8501;49.926;8.404;2023-11-21T14:05:47;15.83;;;10.23;;
16766;SDS011;8501;49.926;8.404;2023-11-21T14:08:17;14.27;;;9.40;;
16766;SDS011;8501;49.926;8.404;2023-11-21T14:10:46;10.37;;;6.60;;
16766;SDS011;8501;49.926;8.404;2023-11-21T14:13:23;10.77;;;6.90;;
16766;SDS011;8501;49.926;8.404;2023-11-21T14:15:49;10.97;;;6.30;;
16766;SDS011;8501;49.926;8.404;2023-11-21T14:18:26;10.93;;;6.33;;
16766;SDS011;8501;49.926;8.404;2023-11-21T14:20:55;12.90;;;6.40;;
16766;SDS011;8501;49.926;8.404;2023-11-21T14:23:21;13.90;;;6.50;;
16766;SDS011;8501;49.926;8.404;2023-11-21T14:25:48;11.27;;;6.10;;
16766;SDS011;8501;49.926;8.404;2023-11-21T14:28:14;13.53;;;7.37;;
16766;SDS011;8501;49.926;8.404;2023-11-21T14:30:40;19.43;;;11.67;;
16766;SDS011;8501;49.926;8.404;2023-11-21T14:33:07;17.77;;;11.80;;
16766;SDS011;8501;49.926;8.404;2023-11-21T14:35:35;17.17;;;10.27;;
16766;SDS011;8501;49.926;8.404;2023-11-21T14:38:03;16.50;;;9.60;;
16766;SDS011;8501;49.926;8.404;2023-11-21T14:40:31;13.43;;;8.77;;
16766;SDS011;8501;49.926;8.404;2023-11-21T14:43:02;14.60;;;9.40;;
16766;SDS011;8501;49.926;8.404;2023-11-21T14:45:32;14.47;;;8.83;;
16766;SDS011;8501;49.926;8.404;2023-11-21T14:47:59;13.90;;;8.43;;
16766;SDS011;8501;49.926;8.404;2023-11-21T14:50:33;14.73;;;8.10;;
16766;SDS011;8501;49.926;8.404;2023-11-21T14:53:14;16.27;;;8.70;;
16766;SDS011;8501;49.926;8.404;2023-11-21T14:55:40;13.70;;;8.23;;
16766;SDS011;8501;49.926;8.404;2023-11-21T14:58:20;14.23;;;8.30;;
16766;SDS011;8501;49.926;8.404;2023-11-21T15:00:52;11.37;;;7.33;;
16766;SDS011;8501;49.926;8.404;2023-11-21T15:03:22;12.13;;;8.03;;
16766;SDS011;8501;49.926;8.404;2023-11-21T15:05:59;12.60;;;7.90;;
16766;SDS011;8501;49.926;8.404;2023-11-21T15:08:47;12.63;;;8.00;;
16766;SDS011;8501;49.926;8.404;2023-11-21T15:11:20;10.07;;;6.47;;